Terminal Aerodrome Forecast
Issued by NWS

Home | Current Version | Previous Version | Text Only | Print | Product List | Glossary On
Versions: 1 2 3 4 5 6 7 8 9 10 11 12 13 14 15 16 17 18 19 20
208
FTUS41 KPBZ 131724
TAFHLG
TAF
KHLG 131724Z 1318/1418 30012G23KT P6SM VCSH SCT025 BKN040
      TEMPO 1318/1321 -SHSN BKN025
     FM140000 28010KT P6SM BKN035
     FM140600 27006KT P6SM SCT035
     FM141400 18005KT P6SM SCT040 BKN250=

USA.gov is the U.S. government's official web portal to all federal, state and local government web resources and services.